createdAt,value
2022-11-28T00:01:41.269Z,97225.19
2022-11-28T00:04:08.475Z,97228.56
2022-11-28T00:06:40.656Z,97219.09
2022-11-28T00:09:08.474Z,97226.09
2022-11-28T00:11:35.191Z,97219.19
2022-11-28T00:14:01.770Z,97215.88
2022-11-28T00:16:28.433Z,97210.66
2022-11-28T00:18:55.406Z,97209.06
2022-11-28T00:21:24.638Z,97210.75
2022-11-28T00:23:52.010Z,97207.38
2022-11-28T00:26:31.387Z,97202.22
2022-11-28T00:28:59.172Z,97201.31
2022-11-28T00:31:29.274Z,97207.38
2022-11-28T00:33:56.455Z,97192.72
2022-11-28T00:36:24.080Z,97187.47
2022-11-28T00:38:51.445Z,97184.94
2022-11-28T00:41:29.363Z,97175.63
2022-11-28T00:43:55.925Z,97164.41
2022-11-28T00:46:23.703Z,97163.44
2022-11-28T00:48:50.919Z,97172.16
2022-11-28T00:51:23.045Z,97174.00
2022-11-28T00:53:51.594Z,97165.34
2022-11-28T00:56:21.478Z,97154.78
2022-11-28T00:58:49.828Z,97154.84
2022-11-28T01:01:20.910Z,97164.22
2022-11-28T01:03:49.360Z,97166.75
2022-11-28T01:06:26.103Z,97160.66
2022-11-28T01:08:52.707Z,97167.44
2022-11-28T01:11:20.088Z,97163.13
2022-11-28T01:13:47.196Z,97168.22
2022-11-28T01:16:14.308Z,97174.31
2022-11-28T01:18:41.149Z,97171.81
2022-11-28T01:21:08.477Z,97165.88
2022-11-28T01:23:35.356Z,97159.16
2022-11-28T01:26:03.057Z,97159.97
2022-11-28T01:28:29.619Z,97163.50
2022-11-28T01:30:56.195Z,97157.25
2022-11-28T01:33:22.933Z,97165.09
2022-11-28T01:35:57.987Z,97162.22
2022-11-28T01:38:25.315Z,97164.88
2022-11-28T01:40:52.365Z,97158.69
2022-11-28T01:43:19.258Z,97147.59
2022-11-28T01:45:45.936Z,97148.31
2022-11-28T01:48:18.488Z,97143.03
2022-11-28T01:50:46.202Z,97132.78
2022-11-28T01:53:13.885Z,97126.56
2022-11-28T01:55:49.306Z,97127.50
2022-11-28T01:58:16.002Z,97114.81
2022-11-28T02:00:42.752Z,97114.81
2022-11-28T02:03:18.940Z,97097.59
2022-11-28T02:05:46.906Z,97090.00
2022-11-28T02:08:13.454Z,97093.63
2022-11-28T02:10:39.888Z,97090.97
2022-11-28T02:13:34.494Z,97092.72
2022-11-28T02:16:19.005Z,97094.53
2022-11-28T02:18:57.387Z,97091.09
2022-11-28T02:21:32.937Z,97090.28
2022-11-28T02:24:14.550Z,97096.31
2022-11-28T02:26:56.720Z,97108.59
2022-11-28T02:29:35.486Z,97107.72
2022-11-28T02:32:30.156Z,97103.59
2022-11-28T02:35:27.677Z,97102.97
2022-11-28T02:38:27.978Z,97100.41
2022-11-28T02:41:06.420Z,97092.94
2022-11-28T02:43:41.984Z,97087.06
2022-11-28T02:46:11.436Z,97083.72
2022-11-28T02:48:41.679Z,97080.47
2022-11-28T02:51:44.183Z,97082.31
2022-11-28T02:54:13.404Z,97090.16
2022-11-28T02:56:50.701Z,97087.50
2022-11-28T02:59:32.415Z,97079.84
2022-11-28T03:02:00.771Z,97077.34
2022-11-28T03:04:33.006Z,97084.41
2022-11-28T03:07:06.357Z,97086.28
2022-11-28T03:09:41.908Z,97085.47
2022-11-28T03:12:17.942Z,97089.72
2022-11-28T03:14:53.778Z,97092.75
2022-11-28T03:17:52.213Z,97090.22
2022-11-28T03:20:47.041Z,97094.72
2022-11-28T03:23:21.171Z,97088.88
2022-11-28T03:25:47.571Z,97085.47
2022-11-28T03:28:26.044Z,97093.31
2022-11-28T03:31:10.952Z,97097.63
2022-11-28T03:33:39.310Z,97096.16
2022-11-28T03:36:12.151Z,97096.31
2022-11-28T03:38:42.950Z,97083.72
2022-11-28T03:41:28.513Z,97087.97
2022-11-28T03:43:58.333Z,97075.81
2022-11-28T03:46:35.226Z,97074.28
2022-11-28T03:49:03.531Z,97077.53
2022-11-28T03:51:37.308Z,97068.91
2022-11-28T03:54:14.595Z,97075.88
2022-11-28T03:56:47.156Z,97070.50
2022-11-28T03:59:23.399Z,97061.75
2022-11-28T04:02:18.151Z,97066.78
2022-11-28T04:05:24.570Z,97060.66
2022-11-28T04:08:01.344Z,97063.19
2022-11-28T04:10:35.376Z,97069.25
2022-11-28T04:13:15.580Z,97061.16
2022-11-28T04:16:11.294Z,97058.75
2022-11-28T04:18:51.056Z,97065.53
2022-11-28T04:21:43.698Z,97065.47
2022-11-28T04:24:21.660Z,97071.47
2022-11-28T04:26:54.841Z,97055.72
2022-11-28T04:29:24.315Z,97060.41
2022-11-28T04:31:56.059Z,97061.34
2022-11-28T04:34:23.731Z,97058.63
2022-11-28T04:36:52.543Z,97059.50
2022-11-28T04:39:22.094Z,97059.53
2022-11-28T04:41:53.594Z,97064.25
2022-11-28T04:44:29.783Z,97069.13
2022-11-28T04:46:57.808Z,97072.63
2022-11-28T04:49:26.619Z,97069.38
2022-11-28T04:52:14.473Z,97064.31
2022-11-28T04:54:53.655Z,97067.72
2022-11-28T04:57:46.563Z,97062.44
2022-11-28T05:00:16.817Z,97059.16
2022-11-28T05:02:45.726Z,97049.88
2022-11-28T05:05:23.468Z,97052.75
2022-11-28T05:07:50.012Z,97045.09
2022-11-28T05:10:17.930Z,97046.88
2022-11-28T05:12:44.454Z,97035.72
2022-11-28T05:15:11.871Z,97024.59
2022-11-28T05:17:42.120Z,97023.69
2022-11-28T05:20:10.034Z,97018.59
2022-11-28T05:22:36.535Z,97022.94
2022-11-28T05:25:03.317Z,97023.88
2022-11-28T05:27:29.834Z,97010.88
2022-11-28T05:29:56.363Z,97012.38
2022-11-28T05:32:22.887Z,97015.75
2022-11-28T05:34:49.394Z,97027.97
2022-11-28T05:37:15.955Z,97029.59
2022-11-28T05:39:42.643Z,97034.72
2022-11-28T05:42:09.302Z,97039.91
2022-11-28T05:44:37.150Z,97038.75
2022-11-28T05:47:03.959Z,97035.25
2022-11-28T05:49:30.510Z,97035.38
2022-11-28T05:51:56.971Z,97030.25
2022-11-28T05:54:23.487Z,97031.38
2022-11-28T05:56:50.031Z,97031.38
2022-11-28T05:59:16.516Z,97028.91
2022-11-28T06:01:43.508Z,97029.97
2022-11-28T06:04:10.100Z,97030.22
2022-11-28T06:06:36.995Z,97026.97
2022-11-28T06:09:04.709Z,97029.72
2022-11-28T06:11:32.653Z,97024.56
2022-11-28T06:13:59.295Z,97022.66
2022-11-28T06:16:27.951Z,97025.19
2022-11-28T06:18:57.057Z,97020.00
2022-11-28T06:21:24.917Z,97016.47
2022-11-28T06:23:52.811Z,97012.06
2022-11-28T06:26:22.161Z,97007.03
2022-11-28T06:28:49.178Z,97002.88
2022-11-28T06:31:18.610Z,96993.50
2022-11-28T06:33:45.620Z,96999.78
2022-11-28T06:36:13.604Z,96999.72
2022-11-28T06:38:40.669Z,96999.84
2022-11-28T06:41:10.198Z,96998.59
2022-11-28T06:43:37.405Z,97004.28
2022-11-28T06:46:04.658Z,97001.19
2022-11-28T06:48:32.256Z,97009.88
2022-11-28T06:51:04.374Z,97020.06
2022-11-28T06:53:31.731Z,97007.75
2022-11-28T06:55:58.517Z,97014.28
2022-11-28T06:58:25.024Z,97020.88
2022-11-28T07:00:51.602Z,97022.22
2022-11-28T07:03:18.190Z,97023.81
2022-11-28T07:05:45.052Z,97022.66
2022-11-28T07:08:11.800Z,97033.84
2022-11-28T07:10:38.565Z,97024.06
2022-11-28T07:13:05.740Z,97016.16
2022-11-28T07:15:32.438Z,97009.44
2022-11-28T07:17:58.980Z,97002.84
2022-11-28T07:20:25.479Z,97016.31
2022-11-28T07:22:51.978Z,97012.41
2022-11-28T07:25:18.535Z,96991.88
2022-11-28T07:27:45.017Z,96990.28
2022-11-28T07:30:11.763Z,96985.75
2022-11-28T07:32:41.651Z,96989.88
2022-11-28T07:35:09.055Z,97013.75
2022-11-28T07:37:36.264Z,97019.25
2022-11-28T07:40:03.867Z,97024.50
2022-11-28T07:42:30.424Z,97021.34
2022-11-28T07:44:56.962Z,97024.94
2022-11-28T07:47:23.476Z,97035.06
2022-11-28T07:49:50.050Z,97026.66
2022-11-28T07:52:16.560Z,97036.81
2022-11-28T07:54:43.085Z,97030.16
2022-11-28T07:57:13.355Z,97022.56
2022-11-28T07:59:40.752Z,97022.66
2022-11-28T08:02:09.047Z,97021.69
2022-11-28T08:04:37.135Z,97021.34
2022-11-28T08:07:03.721Z,97006.38
2022-11-28T08:09:31.791Z,97016.63
2022-11-28T08:11:58.713Z,97021.63
2022-11-28T08:14:25.393Z,97007.41
2022-11-28T08:16:52.407Z,97013.56
2022-11-28T08:19:22.959Z,97018.78
2022-11-28T08:21:51.377Z,97017.69
2022-11-28T08:24:17.845Z,97011.47
2022-11-28T08:26:44.405Z,97011.38
2022-11-28T08:29:11.116Z,97010.56
2022-11-28T08:31:38.894Z,97017.00
2022-11-28T08:34:09.328Z,97012.13
2022-11-28T08:36:35.889Z,97008.44
2022-11-28T08:39:22.718Z,97011.63
2022-11-28T08:41:49.869Z,97005.22
2022-11-28T08:44:16.404Z,97001.22
2022-11-28T08:46:43.060Z,96994.16
2022-11-28T08:49:09.599Z,96993.38
2022-11-28T08:51:36.938Z,96985.00
2022-11-28T08:54:03.513Z,96992.44
2022-11-28T08:56:30.625Z,96987.16
2022-11-28T08:58:57.181Z,96997.31
2022-11-28T09:01:40.870Z,96985.94
2022-11-28T09:04:24.220Z,96982.59
2022-11-28T09:06:54.210Z,96981.41
2022-11-28T09:09:20.825Z,96980.88
2022-11-28T09:11:47.529Z,96984.75
2022-11-28T09:14:14.127Z,96966.16
2022-11-28T09:16:41.054Z,96964.91
2022-11-28T09:19:09.266Z,96969.19
2022-11-28T09:21:37.257Z,96972.56
2022-11-28T09:24:04.308Z,96980.31
2022-11-28T09:26:30.873Z,96985.50
2022-11-28T09:28:57.422Z,96981.97
2022-11-28T09:31:24.070Z,96976.00
2022-11-28T09:33:50.804Z,96968.19
2022-11-28T09:36:20.441Z,96969.72
2022-11-28T09:38:47.637Z,96964.41
2022-11-28T09:41:49.244Z,96971.81
2022-11-28T09:44:30.342Z,96968.75
2022-11-28T09:47:02.399Z,96958.31
2022-11-28T09:49:36.803Z,96967.44
2022-11-28T09:52:43.792Z,96962.81
2022-11-28T09:55:39.308Z,96954.94
2022-11-28T09:58:15.532Z,96955.78
2022-11-28T10:01:21.010Z,96955.00
2022-11-28T10:04:03.365Z,96946.41
2022-11-28T10:07:07.998Z,96945.13
2022-11-28T10:09:44.174Z,96952.22
2022-11-28T10:12:20.205Z,96947.88
2022-11-28T10:14:54.717Z,96948.69
2022-11-28T10:17:37.231Z,96964.66
2022-11-28T10:20:06.510Z,96981.94
2022-11-28T10:22:42.998Z,96990.56
2022-11-28T10:25:31.443Z,96973.88
2022-11-28T10:27:58.231Z,96974.66
2022-11-28T10:30:33.929Z,96973.63
2022-11-28T10:33:23.129Z,96981.00
2022-11-28T10:37:25.835Z,96966.94
2022-11-28T10:43:59.582Z,96971.44
2022-11-28T10:46:47.677Z,96962.31
2022-11-28T10:54:28.398Z,96969.47
2022-11-28T10:57:02.814Z,96963.00
2022-11-28T11:00:18.739Z,96955.75
2022-11-28T11:03:14.702Z,96951.44
2022-11-28T11:06:07.291Z,96961.88
2022-11-28T11:08:40.878Z,96967.41
2022-11-28T11:11:37.449Z,96964.88
2022-11-28T11:14:07.393Z,96975.06
2022-11-28T11:16:57.033Z,96964.69
2022-11-28T11:19:30.029Z,96978.03
2022-11-28T11:22:02.623Z,96968.28
2022-11-28T11:24:29.514Z,96953.97
2022-11-28T11:27:08.066Z,96961.81
2022-11-28T11:29:37.405Z,96957.31
2022-11-28T11:32:06.438Z,96949.53
2022-11-28T11:34:42.475Z,96962.75
2022-11-28T11:37:38.699Z,96964.19
2022-11-28T11:40:26.962Z,96956.06
2022-11-28T11:42:57.304Z,96954.22
2022-11-28T11:45:34.235Z,96959.31
2022-11-28T11:48:01.927Z,96955.38
2022-11-28T11:50:30.432Z,96961.59
2022-11-28T11:53:06.688Z,96959.44
2022-11-28T11:55:43.210Z,96962.66
2022-11-28T11:58:15.289Z,96959.16
2022-11-28T12:00:43.529Z,96950.22
2022-11-28T12:03:53.500Z,96955.75
2022-11-28T12:06:27.940Z,96949.59
2022-11-28T12:09:00.224Z,96939.78
2022-11-28T12:11:31.933Z,96947.00
2022-11-28T12:14:14.738Z,96946.69
2022-11-28T12:16:41.661Z,96948.06
2022-11-28T12:19:28.368Z,96947.00
2022-11-28T12:22:13.180Z,96953.22
2022-11-28T12:25:03.818Z,96958.97
2022-11-28T12:27:32.915Z,96952.78
2022-11-28T12:30:21.212Z,96959.59
2022-11-28T12:33:14.456Z,96947.47
2022-11-28T12:35:45.534Z,96940.28
2022-11-28T12:38:41.298Z,96947.84
2022-11-28T12:41:19.727Z,96944.69
2022-11-28T12:44:25.291Z,96943.69
2022-11-28T12:47:02.282Z,96941.53
2022-11-28T12:49:45.735Z,96954.31
2022-11-28T12:52:40.568Z,96950.34
2022-11-28T12:55:30.595Z,96950.41
2022-11-28T12:58:21.557Z,96949.91
2022-11-28T13:01:00.470Z,96948.63
2022-11-28T13:03:42.604Z,96947.56
2022-11-28T13:06:22.199Z,96951.13
2022-11-28T13:09:14.530Z,96954.22
2022-11-28T13:12:03.530Z,96951.06
2022-11-28T13:14:37.688Z,96950.22
2022-11-28T13:20:09.274Z,96943.56
2022-11-28T13:23:03.901Z,96949.69
2022-11-28T13:25:47.754Z,96938.63
2022-11-28T13:28:14.333Z,96936.09
2022-11-28T13:30:58.747Z,96936.16
2022-11-28T13:33:32.328Z,96938.78
2022-11-28T13:36:01.254Z,96933.84
2022-11-28T13:39:11.968Z,96934.91
2022-11-28T13:42:35.978Z,96938.34
2022-11-28T13:44:44.286Z,96932.91
2022-11-28T13:47:27.950Z,96931.53
2022-11-28T13:50:32.144Z,96935.66
2022-11-28T13:53:07.692Z,96926.78
2022-11-28T13:55:45.092Z,96931.16
2022-11-28T13:58:23.510Z,96936.88
2022-11-28T14:01:13.072Z,96929.97
2022-11-28T14:03:49.357Z,96931.66
2022-11-28T14:06:28.394Z,96937.94
2022-11-28T14:09:16.255Z,96943.25
2022-11-28T14:11:59.913Z,96946.50
2022-11-28T14:14:56.860Z,96940.44
2022-11-28T14:17:47.099Z,96941.59
2022-11-28T14:20:28.948Z,96938.38
2022-11-28T14:23:30.830Z,96945.59
2022-11-28T14:25:58.899Z,96949.69
2022-11-28T14:28:37.845Z,96948.34
2022-11-28T14:31:32.054Z,96946.22
2022-11-28T14:34:01.711Z,96952.94
2022-11-28T14:36:34.250Z,96954.97
2022-11-28T14:39:08.078Z,96949.19
2022-11-28T14:42:03.538Z,96948.09
2022-11-28T14:45:07.894Z,96951.97
2022-11-28T14:47:39.446Z,96939.78
2022-11-28T14:50:06.053Z,96951.91
2022-11-28T14:52:39.443Z,96943.38
2022-11-28T14:55:12.673Z,96949.16
2022-11-28T14:57:44.916Z,96947.53
2022-11-28T15:00:18.361Z,96946.13
2022-11-28T15:03:22.573Z,96941.91
2022-11-28T15:05:53.975Z,96949.91
2022-11-28T15:09:01.031Z,96954.53
2022-11-28T15:11:27.485Z,96947.78
2022-11-28T15:14:17.442Z,96941.19
2022-11-28T15:16:50.140Z,96950.91
2022-11-28T15:19:39.503Z,96940.69
2022-11-28T15:22:06.069Z,96942.59
2022-11-28T15:24:35.300Z,96940.03
2022-11-28T15:27:07.737Z,96944.41
2022-11-28T15:29:35.899Z,96947.81
2022-11-28T15:32:02.901Z,96941.16
2022-11-28T15:34:32.203Z,96951.41
2022-11-28T15:37:07.468Z,96948.78
2022-11-28T15:39:40.532Z,96955.13
2022-11-28T15:42:23.805Z,96942.25
2022-11-28T15:45:14.413Z,96933.06
2022-11-28T15:47:41.210Z,96936.47
2022-11-28T15:50:11.509Z,96935.75
2022-11-28T15:52:38.087Z,96933.31
2022-11-28T15:55:16.023Z,96931.84
2022-11-28T15:57:42.542Z,96938.81
2022-11-28T16:00:13.681Z,96938.91
2022-11-28T16:02:42.288Z,96944.06
2022-11-28T16:05:10.715Z,96950.50
2022-11-28T16:07:42.531Z,96943.53
2022-11-28T16:10:32.794Z,96945.16
2022-11-28T16:13:08.661Z,96940.81
2022-11-28T16:15:36.886Z,96946.69
2022-11-28T16:18:03.748Z,96940.44
2022-11-28T16:20:35.696Z,96940.50
2022-11-28T16:23:09.397Z,96949.31
2022-11-28T16:25:36.873Z,96937.16
2022-11-28T16:28:03.869Z,96933.91
2022-11-28T16:30:44.675Z,96936.44
2022-11-28T16:33:38.673Z,96932.22
2022-11-28T16:36:19.717Z,96937.63
2022-11-28T16:38:48.275Z,96935.78
2022-11-28T16:41:25.098Z,96935.03
2022-11-28T16:43:59.359Z,96933.44
2022-11-28T16:46:32.200Z,96934.22
2022-11-28T16:48:59.694Z,96935.84
2022-11-28T16:51:26.185Z,96921.94
2022-11-28T16:53:59.267Z,96932.41
2022-11-28T16:56:27.109Z,96919.53
2022-11-28T16:58:58.933Z,96915.13
2022-11-28T17:01:25.715Z,96915.34
2022-11-28T17:03:53.551Z,96921.28
2022-11-28T17:06:34.253Z,96919.41
2022-11-28T17:09:02.200Z,96918.47
2022-11-28T17:11:33.187Z,96917.50
2022-11-28T17:14:02.537Z,96919.13
2022-11-28T17:16:33.406Z,96916.75
2022-11-28T17:19:00.094Z,96917.66
2022-11-28T17:21:42.439Z,96921.16
2022-11-28T17:24:17.498Z,96932.44
2022-11-28T17:26:44.148Z,96924.78
2022-11-28T17:29:12.632Z,96927.53
2022-11-28T17:31:42.393Z,96924.94
2022-11-28T17:34:20.688Z,96924.06
2022-11-28T17:36:47.942Z,96926.13
2022-11-28T17:39:14.941Z,96929.41
2022-11-28T17:41:41.589Z,96927.69
2022-11-28T17:44:24.204Z,96919.06
2022-11-28T17:46:52.971Z,96925.97
2022-11-28T17:49:20.227Z,96930.19
2022-11-28T17:51:47.303Z,96925.22
2022-11-28T17:54:18.880Z,96921.84
2022-11-28T17:56:47.743Z,96927.84
2022-11-28T17:59:18.847Z,96930.75
2022-11-28T18:01:46.581Z,96926.38
2022-11-28T18:04:13.218Z,96924.81
2022-11-28T18:06:43.753Z,96925.53
2022-11-28T18:09:12.336Z,96930.59
2022-11-28T18:11:40.294Z,96930.66
2022-11-28T18:14:07.243Z,96927.03
2022-11-28T18:16:35.897Z,96928.81
2022-11-28T18:19:03.383Z,96920.09
2022-11-28T18:21:29.958Z,96922.03
2022-11-28T18:23:56.501Z,96928.72
2022-11-28T18:26:25.011Z,96927.59
2022-11-28T18:28:52.073Z,96920.69
2022-11-28T18:31:22.632Z,96922.56
2022-11-28T18:33:49.739Z,96929.41
2022-11-28T18:36:19.453Z,96924.19
2022-11-28T18:38:46.800Z,96912.09
2022-11-28T18:41:15.572Z,96916.47
2022-11-28T18:43:42.580Z,96918.16
2022-11-28T18:46:12.037Z,96915.56
2022-11-28T18:48:40.705Z,96906.81
2022-11-28T18:51:21.863Z,96914.25
2022-11-28T18:53:49.776Z,96910.69
2022-11-28T18:56:16.985Z,96908.81
2022-11-28T18:58:47.841Z,96906.03
2022-11-28T19:01:25.115Z,96909.31
2022-11-28T19:03:54.156Z,96909.59
2022-11-28T19:06:21.462Z,96914.53
2022-11-28T19:08:52.597Z,96912.84
2022-11-28T19:11:19.187Z,96903.44
2022-11-28T19:13:47.428Z,96907.66
2022-11-28T19:16:18.150Z,96903.47
2022-11-28T19:18:45.100Z,96901.66
2022-11-28T19:21:17.855Z,96896.44
2022-11-28T19:23:44.691Z,96900.81
2022-11-28T19:26:14.277Z,96901.66
2022-11-28T19:28:41.995Z,96899.78
2022-11-28T19:31:22.554Z,96891.25
2022-11-28T19:34:02.352Z,96898.22
2022-11-28T19:36:33.416Z,96895.56
2022-11-28T19:39:00.240Z,96894.69
2022-11-28T19:41:28.404Z,96894.00
2022-11-28T19:43:54.937Z,96896.63
2022-11-28T19:46:21.431Z,96897.66
2022-11-28T19:48:47.954Z,96898.53
2022-11-28T19:51:15.819Z,96902.78
2022-11-28T19:53:43.571Z,96903.75
2022-11-28T19:56:16.600Z,96907.09
2022-11-28T19:58:43.798Z,96908.81
2022-11-28T20:01:12.488Z,96910.50
2022-11-28T20:03:41.132Z,96919.06
2022-11-28T20:06:15.954Z,96912.78
2022-11-28T20:08:43.132Z,96917.91
2022-11-28T20:11:10.646Z,96918.69
2022-11-28T20:13:37.217Z,96916.03
2022-11-28T20:16:05.942Z,96918.56
2022-11-28T20:18:32.900Z,96916.75
2022-11-28T20:21:06.209Z,96923.78
2022-11-28T20:23:33.271Z,96922.88
2022-11-28T20:26:04.698Z,96928.91
2022-11-28T20:28:35.821Z,96924.50
2022-11-28T20:31:02.517Z,96931.38
2022-11-28T20:33:29.782Z,96929.56
2022-11-28T20:36:11.022Z,96926.16
2022-11-28T20:38:37.540Z,96920.00
2022-11-28T20:41:05.852Z,96928.66
2022-11-28T20:43:34.257Z,96925.34
2022-11-28T20:46:05.366Z,96929.88
2022-11-28T20:48:32.120Z,96934.19
2022-11-28T20:50:58.733Z,96932.50
2022-11-28T20:53:27.043Z,96933.53
2022-11-28T20:56:01.658Z,96935.31
2022-11-28T20:58:28.796Z,96937.09
2022-11-28T21:00:57.133Z,96932.06
2022-11-28T21:03:24.657Z,96938.22
2022-11-28T21:05:56.417Z,96936.97
2022-11-28T21:08:26.163Z,96936.13
2022-11-28T21:10:52.658Z,96938.72
2022-11-28T21:13:19.373Z,96940.53
2022-11-28T21:15:45.920Z,96931.09
2022-11-28T21:18:16.146Z,96934.38
2022-11-28T21:20:45.671Z,96927.53
2022-11-28T21:23:13.796Z,96931.06
2022-11-28T21:25:42.301Z,96934.75
2022-11-28T21:28:09.776Z,96926.09
2022-11-28T21:30:42.600Z,96938.22
2022-11-28T21:33:11.061Z,96938.06
2022-11-28T21:35:39.193Z,96937.16
2022-11-28T21:38:06.683Z,96937.09
2022-11-28T21:40:33.703Z,96932.81
2022-11-28T21:43:00.270Z,96933.78
2022-11-28T21:45:26.872Z,96935.66
2022-11-28T21:47:53.448Z,96935.47
2022-11-28T21:50:20.043Z,96931.97
2022-11-28T21:52:46.515Z,96934.63
2022-11-28T21:55:12.988Z,96933.00
2022-11-28T21:57:42.111Z,96934.06
2022-11-28T22:00:25.679Z,96938.22
2022-11-28T22:03:02.532Z,96941.84
2022-11-28T22:05:31.652Z,96935.72
2022-11-28T22:07:58.494Z,96931.47
2022-11-28T22:10:25.046Z,96928.94
2022-11-28T22:12:51.622Z,96937.63
2022-11-28T22:15:18.215Z,96944.63
2022-11-28T22:17:44.697Z,96932.22
2022-11-28T22:20:11.853Z,96940.41
2022-11-28T22:22:38.393Z,96940.59
2022-11-28T22:25:05.368Z,96941.50
2022-11-28T22:27:32.458Z,96943.91
2022-11-28T22:29:59.069Z,96939.44
2022-11-28T22:32:25.559Z,96937.00
2022-11-28T22:34:52.085Z,96931.75
2022-11-28T22:37:18.574Z,96935.84
2022-11-28T22:39:45.106Z,96938.59
2022-11-28T22:42:11.691Z,96938.63
2022-11-28T22:44:38.222Z,96940.53
2022-11-28T22:47:05.004Z,96932.91
2022-11-28T22:49:31.530Z,96933.69
2022-11-28T22:51:57.993Z,96931.88
2022-11-28T22:54:24.506Z,96935.44
2022-11-28T22:56:53.103Z,96937.13
2022-11-28T22:59:19.707Z,96933.56
2022-11-28T23:01:46.311Z,96935.19
2022-11-28T23:04:12.805Z,96933.50
2022-11-28T23:06:39.923Z,96931.03
2022-11-28T23:09:08.342Z,96930.13
2022-11-28T23:11:38.270Z,96930.00
2022-11-28T23:14:05.598Z,96926.50
2022-11-28T23:16:34.669Z,96935.03
2022-11-28T23:19:05.115Z,96922.06
2022-11-28T23:21:37.193Z,96934.69
2022-11-28T23:24:04.765Z,96923.31
2022-11-28T23:26:32.147Z,96922.47
2022-11-28T23:29:00.807Z,96926.94
2022-11-28T23:31:30.113Z,96923.50
2022-11-28T23:33:57.931Z,96924.53
2022-11-28T23:36:28.664Z,96928.13
2022-11-28T23:38:57.748Z,96918.47
2022-11-28T23:41:25.226Z,96921.94
2022-11-28T23:43:51.799Z,96932.72
2022-11-28T23:46:19.607Z,96923.97
2022-11-28T23:48:46.934Z,96927.59
2022-11-28T23:51:18.843Z,96930.22
2022-11-28T23:53:45.720Z,96932.91
2022-11-28T23:56:15.564Z,96935.41
2022-11-28T23:58:42.621Z,96933.88
